createdAt,value
2018-11-13T00:00:59.986Z,6.39
2018-11-13T00:03:29.340Z,6.40
2018-11-13T00:05:58.884Z,6.42
2018-11-13T00:08:28.392Z,6.39
2018-11-13T00:10:58.181Z,6.37
2018-11-13T00:13:28.226Z,6.35
2018-11-13T00:15:58.575Z,6.35
2018-11-13T00:18:28.265Z,6.36
2018-11-13T00:20:58.339Z,6.40
2018-11-13T00:23:28.467Z,6.40
2018-11-13T00:25:58.462Z,6.33
2018-11-13T00:28:30.538Z,6.33
2018-11-13T00:30:59.853Z,6.32
2018-11-13T00:33:29.224Z,6.32
2018-11-13T00:35:58.664Z,6.36
2018-11-13T00:38:28.719Z,6.32
2018-11-13T00:40:58.795Z,6.34
2018-11-13T00:43:28.571Z,6.28
2018-11-13T00:45:58.778Z,6.23
2018-11-13T00:48:29.041Z,6.21
2018-11-13T00:50:59.199Z,6.27
2018-11-13T00:53:28.588Z,6.26
2018-11-13T00:55:58.935Z,6.26
2018-11-13T00:58:28.864Z,6.28
2018-11-13T01:00:58.641Z,6.32
2018-11-13T01:03:28.731Z,6.38
2018-11-13T01:05:58.849Z,6.38
2018-11-13T01:08:28.719Z,6.36
2018-11-13T01:10:58.732Z,6.36
2018-11-13T01:13:29.349Z,6.34
2018-11-13T01:15:58.739Z,6.35
2018-11-13T01:18:28.697Z,6.41
2018-11-13T01:20:58.717Z,6.40
2018-11-13T01:23:28.822Z,6.42
2018-11-13T01:25:59.014Z,6.44
2018-11-13T01:28:28.780Z,6.41
2018-11-13T01:30:58.847Z,6.43
2018-11-13T01:33:28.712Z,6.47
2018-11-13T01:35:58.704Z,6.48
2018-11-13T01:38:28.716Z,6.44
2018-11-13T01:40:58.732Z,6.41
2018-11-13T01:43:28.852Z,6.39
2018-11-13T01:45:58.724Z,6.39
2018-11-13T01:48:28.841Z,6.38
2018-11-13T01:50:58.818Z,6.42
2018-11-13T01:53:28.840Z,6.45
2018-11-13T01:55:58.904Z,6.43
2018-11-13T01:58:28.916Z,6.42
2018-11-13T02:00:59.191Z,6.39
2018-11-13T02:03:28.902Z,6.38
2018-11-13T02:05:59.013Z,6.43
2018-11-13T02:08:28.955Z,6.41
2018-11-13T02:10:59.064Z,6.42
2018-11-13T02:13:29.002Z,6.39
2018-11-13T02:15:59.026Z,6.38
2018-11-13T02:18:29.069Z,6.36
2018-11-13T02:20:59.180Z,6.36
2018-11-13T02:23:29.198Z,6.34
2018-11-13T02:25:59.186Z,6.36
2018-11-13T02:28:29.178Z,6.34
2018-11-13T02:31:00.688Z,6.36
2018-11-13T02:33:30.550Z,6.32
2018-11-13T02:35:59.747Z,6.30
2018-11-13T02:38:29.323Z,6.30
2018-11-13T02:40:59.218Z,6.28
2018-11-13T02:43:29.336Z,6.32
2018-11-13T02:45:59.312Z,6.35
2018-11-13T02:48:29.304Z,6.34
2018-11-13T02:50:59.266Z,6.30
2018-11-13T02:53:29.300Z,6.29
2018-11-13T02:55:59.409Z,6.28
2018-11-13T02:58:29.412Z,6.26
2018-11-13T03:00:59.404Z,6.26
2018-11-13T03:03:29.426Z,6.31
2018-11-13T03:05:59.441Z,6.31
2018-11-13T03:08:29.457Z,6.27
2018-11-13T03:10:59.442Z,6.28
2018-11-13T03:13:29.443Z,6.29
2018-11-13T03:15:59.595Z,6.24
2018-11-13T03:18:29.471Z,6.21
2018-11-13T03:20:59.545Z,6.24
2018-11-13T03:23:29.546Z,6.26
2018-11-13T03:25:59.623Z,6.28
2018-11-13T03:28:29.694Z,6.29
2018-11-13T03:30:59.715Z,6.26
2018-11-13T03:33:29.584Z,6.19
2018-11-13T03:35:59.739Z,6.18
2018-11-13T03:38:29.661Z,6.15
2018-11-13T03:40:59.699Z,6.13
2018-11-13T03:43:29.716Z,6.08
2018-11-13T03:45:59.762Z,6.10
2018-11-13T03:48:29.799Z,6.12
2018-11-13T03:50:59.774Z,6.14
2018-11-13T03:53:29.810Z,6.11
2018-11-13T03:55:59.822Z,6.08
2018-11-13T03:58:29.881Z,6.08
2018-11-13T04:00:59.825Z,6.09
2018-11-13T04:03:29.864Z,6.12
2018-11-13T04:05:59.923Z,6.17
2018-11-13T04:08:29.918Z,6.23
2018-11-13T04:10:59.951Z,6.24
2018-11-13T04:13:29.925Z,6.16
2018-11-13T04:15:59.977Z,6.17
2018-11-13T04:18:29.935Z,6.13
2018-11-13T04:21:00.208Z,6.12
2018-11-13T04:23:30.009Z,6.10
2018-11-13T04:26:00.264Z,6.13
2018-11-13T04:28:30.129Z,6.17
2018-11-13T04:31:00.173Z,6.17
2018-11-13T04:33:30.181Z,6.12
2018-11-13T04:36:00.265Z,6.08
2018-11-13T04:38:30.235Z,6.06
2018-11-13T04:41:00.252Z,6.05
2018-11-13T04:43:30.209Z,5.98
2018-11-13T04:46:00.354Z,6.05
2018-11-13T04:48:30.313Z,6.08
2018-11-13T04:51:00.363Z,6.08
2018-11-13T04:53:30.396Z,6.08
2018-11-13T04:56:00.409Z,6.07
2018-11-13T04:58:30.487Z,6.09
2018-11-13T05:01:00.556Z,6.10
2018-11-13T05:03:30.569Z,6.11
2018-11-13T05:06:00.558Z,6.14
2018-11-13T05:08:30.577Z,6.16
2018-11-13T05:11:00.589Z,6.15
2018-11-13T05:13:30.707Z,6.18
2018-11-13T05:16:01.985Z,6.19
2018-11-13T05:18:31.204Z,6.20
2018-11-13T05:21:00.715Z,6.17
2018-11-13T05:23:30.722Z,6.19
2018-11-13T05:26:00.708Z,6.21
2018-11-13T05:28:30.726Z,6.13
2018-11-13T05:31:00.762Z,6.13
2018-11-13T05:33:30.738Z,6.16
2018-11-13T05:36:00.770Z,6.16
2018-11-13T05:38:30.791Z,6.13
2018-11-13T05:41:00.894Z,6.13
2018-11-13T05:43:30.902Z,6.08
2018-11-13T05:46:00.940Z,6.06
2018-11-13T05:48:30.978Z,6.07
2018-11-13T05:51:00.971Z,6.11
2018-11-13T05:53:30.978Z,6.11
2018-11-13T05:56:00.957Z,6.12
2018-11-13T05:58:31.046Z,6.12
2018-11-13T06:01:01.082Z,6.14
2018-11-13T06:03:31.004Z,6.13
2018-11-13T06:06:01.050Z,6.10
2018-11-13T06:08:31.193Z,6.06
2018-11-13T06:11:00.952Z,6.00
2018-11-13T06:13:31.173Z,5.96
2018-11-13T06:16:01.116Z,5.92
2018-11-13T06:18:31.172Z,5.86
2018-11-13T06:21:01.251Z,5.88
2018-11-13T06:23:31.182Z,5.93
2018-11-13T06:26:01.240Z,5.93
2018-11-13T06:28:31.314Z,5.93
2018-11-13T06:31:01.346Z,5.95
2018-11-13T06:33:31.642Z,5.93
2018-11-13T06:36:01.391Z,5.94
2018-11-13T06:38:31.607Z,5.97
2018-11-13T06:41:01.761Z,5.96
2018-11-13T06:43:31.748Z,5.91
2018-11-13T06:46:01.352Z,5.91
2018-11-13T06:48:31.486Z,5.88
2018-11-13T06:51:01.484Z,5.88
2018-11-13T06:55:18.130Z,5.88
2018-11-13T06:57:47.843Z,5.90
2018-11-13T07:00:17.202Z,5.84
2018-11-13T07:02:46.560Z,5.80
2018-11-13T07:05:16.827Z,5.82
2018-11-13T07:07:46.514Z,5.75
2018-11-13T07:13:01.750Z,5.81
2018-11-13T07:15:32.352Z,5.82
2018-11-13T07:18:03.897Z,5.85
2018-11-13T07:20:34.361Z,5.83
2018-11-13T07:23:03.551Z,5.83
2018-11-13T07:25:32.964Z,5.84
2018-11-13T07:28:02.123Z,5.89
2018-11-13T07:30:31.889Z,5.93
2018-11-13T07:33:01.965Z,5.92
2018-11-13T07:35:31.883Z,5.98
2018-11-13T07:38:01.913Z,5.95
2018-11-13T07:40:31.941Z,5.98
2018-11-13T07:43:01.919Z,5.98
2018-11-13T07:45:32.267Z,5.93
2018-11-13T07:48:01.986Z,5.98
2018-11-13T07:50:32.003Z,6.04
2018-11-13T07:53:02.031Z,6.09
2018-11-13T07:55:32.143Z,6.15
2018-11-13T07:58:02.337Z,6.16
2018-11-13T08:00:32.060Z,6.13
2018-11-13T08:06:13.070Z,5.97
2018-11-13T08:08:42.223Z,6.06
2018-11-13T08:11:11.470Z,6.14
2018-11-13T08:13:40.814Z,6.22
2018-11-13T08:16:10.025Z,6.26
2018-11-13T08:18:39.352Z,6.25
2018-11-13T08:21:08.695Z,6.26
2018-11-13T08:23:37.815Z,6.29
2018-11-13T08:26:07.394Z,6.36
2018-11-13T08:28:36.640Z,6.39
2018-11-13T08:31:06.502Z,6.31
2018-11-13T08:33:36.064Z,6.35
2018-11-13T08:36:05.342Z,6.37
2018-11-13T08:38:34.546Z,6.42
2018-11-13T08:41:03.835Z,6.51
2018-11-13T08:43:33.159Z,6.60
2018-11-13T08:46:02.506Z,6.62
2018-11-13T08:48:32.473Z,6.69
2018-11-13T08:51:02.494Z,6.67
2018-11-13T08:53:32.656Z,6.68
2018-11-13T08:56:02.587Z,6.77
2018-11-13T08:58:32.726Z,6.84
2018-11-13T09:01:02.707Z,6.80
2018-11-13T09:03:32.669Z,6.90
2018-11-13T09:06:02.764Z,6.98
2018-11-13T09:08:32.705Z,7.05
2018-11-13T09:11:03.054Z,7.15
2018-11-13T09:13:32.851Z,7.21
2018-11-13T09:16:02.886Z,7.32
2018-11-13T09:18:32.851Z,7.37
2018-11-13T09:21:02.903Z,7.42
2018-11-13T09:23:32.912Z,7.45
2018-11-13T09:26:02.924Z,7.54
2018-11-13T09:28:32.980Z,7.64
2018-11-13T09:31:03.391Z,7.68
2018-11-13T09:33:32.947Z,7.70
2018-11-13T09:36:02.931Z,7.77
2018-11-13T09:38:32.952Z,7.81
2018-11-13T09:41:03.054Z,7.83
2018-11-13T09:43:32.940Z,7.88
2018-11-13T09:46:03.112Z,7.92
2018-11-13T09:48:33.185Z,7.98
2018-11-13T09:51:03.104Z,8.03
2018-11-13T09:53:33.178Z,8.12
2018-11-13T09:56:03.117Z,8.19
2018-11-13T09:58:33.200Z,8.24
2018-11-13T10:01:03.478Z,8.26
2018-11-13T10:03:33.950Z,8.28
2018-11-13T10:06:03.828Z,8.28
2018-11-13T10:08:33.328Z,8.28
2018-11-13T10:11:03.479Z,8.33
2018-11-13T10:13:33.462Z,8.38
2018-11-13T10:16:03.505Z,8.41
2018-11-13T10:18:33.518Z,8.43
2018-11-13T10:21:03.613Z,8.44
2018-11-13T10:23:33.514Z,8.49
2018-11-13T10:26:03.792Z,8.51
2018-11-13T10:28:33.489Z,8.55
2018-11-13T10:31:03.536Z,8.62
2018-11-13T10:33:33.583Z,8.67
2018-11-13T10:36:03.536Z,8.75
2018-11-13T10:38:33.643Z,8.81
2018-11-13T10:41:03.792Z,8.90
2018-11-13T10:43:33.600Z,9.02
2018-11-13T10:46:03.662Z,9.18
2018-11-13T10:48:33.698Z,9.34
2018-11-13T10:51:03.691Z,9.50
2018-11-13T10:53:33.959Z,9.66
2018-11-13T10:56:03.792Z,9.88
2018-11-13T10:58:33.733Z,10.06
2018-11-13T11:01:09.264Z,10.18
2018-11-13T11:03:44.516Z,10.28
2018-11-13T11:06:13.747Z,10.34
2018-11-13T11:08:43.793Z,10.38
2018-11-13T11:11:13.126Z,10.43
2018-11-13T11:13:42.370Z,10.54
2018-11-13T11:16:11.624Z,10.65
2018-11-13T11:18:40.835Z,10.84
2018-11-13T11:21:10.038Z,10.97
2018-11-13T11:23:39.334Z,11.07
2018-11-13T11:26:09.172Z,11.11
2018-11-13T11:28:38.519Z,11.13
2018-11-13T11:31:07.867Z,11.11
2018-11-13T11:33:37.112Z,11.06
2018-11-13T11:36:06.353Z,11.03
2018-11-13T11:38:35.705Z,10.97
2018-11-13T11:41:05.758Z,10.91
2018-11-13T11:43:35.004Z,10.89
2018-11-13T11:46:04.247Z,10.88
2018-11-13T11:48:34.207Z,10.87
2018-11-13T11:51:04.297Z,10.87
2018-11-13T11:53:33.702Z,10.88
2018-11-13T11:56:02.888Z,10.86
2018-11-13T11:58:32.104Z,10.84
2018-11-13T12:01:01.467Z,10.85
2018-11-13T12:03:30.766Z,10.87
2018-11-13T12:06:00.069Z,10.87
2018-11-13T12:08:29.322Z,10.87
2018-11-13T12:10:58.601Z,10.84
2018-11-13T12:13:27.766Z,10.83
2018-11-13T12:15:57.098Z,10.81
2018-11-13T12:18:26.333Z,10.80
2018-11-13T12:20:55.654Z,10.80
2018-11-13T12:23:24.869Z,10.80
2018-11-13T12:25:54.135Z,10.82
2018-11-13T12:28:23.290Z,10.82
2018-11-13T12:30:52.501Z,10.83
2018-11-13T12:33:21.888Z,10.85
2018-11-13T12:35:51.154Z,10.87
2018-11-13T12:38:20.532Z,10.86
2018-11-13T12:40:49.789Z,10.85
2018-11-13T12:43:19.525Z,10.82
2018-11-13T12:45:49.384Z,10.79
2018-11-13T12:48:19.148Z,10.80
2018-11-13T12:50:54.030Z,10.78
2018-11-13T12:53:23.954Z,10.76
2018-11-13T12:55:53.806Z,10.78
2018-11-13T12:58:23.513Z,10.80
2018-11-13T13:00:53.475Z,10.79
2018-11-13T13:03:23.444Z,10.80
2018-11-13T13:05:53.220Z,10.79
2018-11-13T13:08:23.178Z,10.79
2018-11-13T13:10:52.901Z,10.76
2018-11-13T13:13:22.833Z,10.77
2018-11-13T13:15:52.712Z,10.78
2018-11-13T13:18:22.665Z,10.80
2018-11-13T13:20:52.425Z,10.81
2018-11-13T13:23:22.323Z,10.83
2018-11-13T13:25:52.239Z,10.81
2018-11-13T13:28:22.107Z,10.81
2018-11-13T13:30:52.066Z,10.79
2018-11-13T13:33:22.112Z,10.77
2018-11-13T13:36:00.304Z,10.73
2018-11-13T13:38:31.224Z,10.75
2018-11-13T13:41:02.358Z,10.72
2018-11-13T13:43:32.859Z,10.69
2018-11-13T13:46:02.733Z,10.70
2018-11-13T13:48:32.754Z,10.68
2018-11-13T13:51:02.690Z,10.67
2018-11-13T13:53:32.379Z,10.65
2018-11-13T13:56:02.176Z,10.64
2018-11-13T13:58:32.192Z,10.63
2018-11-13T14:01:02.454Z,10.61
2018-11-13T14:03:32.277Z,10.61
2018-11-13T14:06:02.065Z,10.59
2018-11-13T14:08:31.851Z,10.59
2018-11-13T14:11:01.673Z,10.58
2018-11-13T14:13:31.834Z,10.58
2018-11-13T14:16:01.753Z,10.60
2018-11-13T14:18:31.660Z,10.58
2018-11-13T14:21:01.776Z,10.56
2018-11-13T14:23:31.518Z,10.56
2018-11-13T14:26:01.284Z,10.57
2018-11-13T14:28:30.999Z,10.58
2018-11-13T14:31:00.821Z,10.58
2018-11-13T14:33:30.811Z,10.57
2018-11-13T14:36:00.830Z,10.55
2018-11-13T14:38:30.728Z,10.51
2018-11-13T14:41:00.632Z,10.48
2018-11-13T14:43:30.670Z,10.47
2018-11-13T14:46:00.568Z,10.42
2018-11-13T14:48:30.481Z,10.44
2018-11-13T14:51:00.331Z,10.41
2018-11-13T14:53:30.375Z,10.40
2018-11-13T14:56:00.120Z,10.38
2018-11-13T14:58:29.964Z,10.36
2018-11-13T15:00:59.844Z,10.36
2018-11-13T15:03:29.627Z,10.35
2018-11-13T15:05:59.469Z,10.34
2018-11-13T15:08:29.368Z,10.32
2018-11-13T15:10:59.284Z,10.28
2018-11-13T15:13:29.208Z,10.24
2018-11-13T15:15:59.196Z,10.20
2018-11-13T15:18:29.111Z,10.18
2018-11-13T15:20:59.085Z,10.18
2018-11-13T15:23:28.979Z,10.15
2018-11-13T15:25:58.922Z,10.14
2018-11-13T15:28:28.905Z,10.14
2018-11-13T15:30:58.734Z,10.12
2018-11-13T15:33:28.457Z,10.11
2018-11-13T15:35:58.543Z,10.07
2018-11-13T15:38:28.355Z,10.04
2018-11-13T15:40:58.180Z,10.01
2018-11-13T15:43:28.226Z,9.98
2018-11-13T15:45:57.991Z,9.95
2018-11-13T15:48:27.833Z,9.92
2018-11-13T15:50:57.693Z,9.89
2018-11-13T15:53:27.561Z,9.87
2018-11-13T15:55:57.529Z,9.85
2018-11-13T15:58:27.529Z,9.83
2018-11-13T16:00:57.582Z,9.81
2018-11-13T16:03:31.510Z,9.77
2018-11-13T16:06:01.692Z,9.75
2018-11-13T16:08:31.582Z,9.68
2018-11-13T16:11:01.637Z,9.70
2018-11-13T16:13:31.526Z,9.69
2018-11-13T16:16:01.546Z,9.68
2018-11-13T16:18:31.873Z,9.64
2018-11-13T16:21:01.860Z,9.62
2018-11-13T16:23:31.853Z,9.59
2018-11-13T16:26:01.740Z,9.57
2018-11-13T16:28:31.639Z,9.54
2018-11-13T16:31:01.508Z,9.53
2018-11-13T16:33:31.487Z,9.50
2018-11-13T16:36:01.294Z,9.46
2018-11-13T16:38:31.351Z,9.45
2018-11-13T16:41:01.302Z,9.42
2018-11-13T16:43:31.088Z,9.39
2018-11-13T16:46:00.983Z,9.38
2018-11-13T16:48:30.809Z,9.36
2018-11-13T16:51:00.764Z,9.35
2018-11-13T16:53:30.572Z,9.34
2018-11-13T16:56:03.035Z,9.33
2018-11-13T16:58:33.155Z,9.32
2018-11-13T17:01:03.055Z,9.30
2018-11-13T17:03:32.846Z,9.30
2018-11-13T17:06:02.851Z,9.27
2018-11-13T17:08:32.682Z,9.26
2018-11-13T17:11:02.648Z,9.25
2018-11-13T17:13:32.632Z,9.22
2018-11-13T17:16:02.695Z,9.19
2018-11-13T17:18:33.550Z,9.17
2018-11-13T17:21:03.360Z,9.13
2018-11-13T17:23:33.247Z,9.12
2018-11-13T17:26:03.179Z,9.08
2018-11-13T17:28:33.160Z,9.06
2018-11-13T17:31:03.232Z,9.03
2018-11-13T17:33:33.048Z,8.98
2018-11-13T17:36:03.018Z,8.96
2018-11-13T17:38:33.223Z,8.93
2018-11-13T17:41:03.284Z,8.88
2018-11-13T17:43:33.415Z,8.84
2018-11-13T17:46:03.355Z,8.82
2018-11-13T17:48:33.194Z,8.78
2018-11-13T17:51:02.948Z,8.73
2018-11-13T17:53:32.748Z,8.68
2018-11-13T17:56:02.387Z,8.65
2018-11-13T17:58:32.288Z,8.61
2018-11-13T18:01:02.488Z,8.58
2018-11-13T18:03:32.425Z,8.55
2018-11-13T18:06:02.497Z,8.53
2018-11-13T18:08:32.588Z,8.50
2018-11-13T18:11:02.840Z,8.47
2018-11-13T18:13:32.880Z,8.45
2018-11-13T18:16:03.127Z,8.39
2018-11-13T18:18:33.317Z,8.35
2018-11-13T18:21:03.686Z,8.29
2018-11-13T18:23:34.361Z,8.26
2018-11-13T18:26:05.620Z,8.25
2018-11-13T18:28:36.065Z,8.19
2018-11-13T18:31:06.845Z,8.13
2018-11-13T18:33:37.030Z,8.08
2018-11-13T18:36:07.969Z,8.02
2018-11-13T18:38:38.803Z,7.93
2018-11-13T18:41:09.305Z,7.87
2018-11-13T18:43:39.807Z,7.83
2018-11-13T18:46:10.375Z,7.81
2018-11-13T18:48:40.853Z,7.81
2018-11-13T18:51:11.267Z,7.77
2018-11-13T18:53:41.639Z,7.73
2018-11-13T18:56:11.936Z,7.66
2018-11-13T18:58:42.655Z,7.62
2018-11-13T19:01:13.083Z,7.57
2018-11-13T19:03:43.596Z,7.54
2018-11-13T19:06:15.021Z,7.53
2018-11-13T19:08:46.389Z,7.50
2018-11-13T19:14:26.924Z,7.41
2018-11-13T19:16:57.491Z,7.38
2018-11-13T19:19:27.908Z,7.37
2018-11-13T19:21:57.796Z,7.35
2018-11-13T19:24:27.740Z,7.33
2018-11-13T19:27:02.623Z,7.26
2018-11-13T19:29:34.014Z,7.19
2018-11-13T19:32:04.967Z,7.15
2018-11-13T19:34:35.193Z,7.12
2018-11-13T19:37:05.573Z,7.10
2018-11-13T19:39:35.435Z,7.08
2018-11-13T19:42:07.053Z,7.05
2018-11-13T19:44:37.907Z,7.02
2018-11-13T19:47:08.596Z,6.99
2018-11-13T19:49:38.929Z,6.94
2018-11-13T19:52:11.575Z,6.88
2018-11-13T19:54:41.805Z,6.82
2018-11-13T20:31:06.488Z,6.36
2018-11-13T20:33:38.115Z,6.32
2018-11-13T20:36:07.897Z,6.30
2018-11-13T20:38:37.796Z,6.27
2018-11-13T20:41:08.048Z,6.24
2018-11-13T20:43:39.685Z,6.22
2018-11-13T20:46:10.196Z,6.18
2018-11-13T20:48:40.211Z,6.15
2018-11-13T20:51:11.871Z,6.12
2018-11-13T20:53:42.382Z,6.06
2018-11-13T20:56:13.277Z,6.01
2018-11-13T20:58:44.027Z,5.97
2018-11-13T21:01:15.294Z,5.94
2018-11-13T21:03:46.042Z,5.91
2018-11-13T21:06:16.525Z,5.88
2018-11-13T21:08:47.524Z,5.82
2018-11-13T21:11:18.516Z,5.79
2018-11-13T21:13:49.623Z,5.79
2018-11-13T21:16:21.035Z,5.80
2018-11-13T21:18:52.560Z,5.81
2018-11-13T21:21:23.177Z,5.80
2018-11-13T21:23:53.693Z,5.73
2018-11-13T21:26:24.124Z,5.70
2018-11-13T21:28:54.955Z,5.65
2018-11-13T21:31:25.462Z,5.60
2018-11-13T21:33:56.153Z,5.56
2018-11-13T21:36:26.707Z,5.49
2018-11-13T21:38:57.360Z,5.45
2018-11-13T21:41:28.451Z,5.43
2018-11-13T21:46:28.775Z,5.37
2018-11-13T21:48:58.425Z,5.33
2018-11-13T21:51:28.011Z,5.27
2018-11-13T21:53:58.854Z,5.22
2018-11-13T21:56:28.449Z,5.19
2018-11-13T21:58:58.954Z,5.13
2018-11-13T22:01:28.560Z,5.08
2018-11-13T22:03:58.124Z,5.04
2018-11-13T22:06:27.828Z,4.98
2018-11-13T22:08:57.206Z,4.97
2018-11-13T22:11:26.568Z,4.92
2018-11-13T22:13:55.820Z,4.88
2018-11-13T22:16:25.125Z,4.84
2018-11-13T22:18:54.527Z,4.83
2018-11-13T22:21:23.843Z,4.81
2018-11-13T22:23:54.804Z,4.80
2018-11-13T22:26:24.050Z,4.76
2018-11-13T22:28:53.562Z,4.73
2018-11-13T22:31:22.595Z,4.70
2018-11-13T22:33:51.769Z,4.65
2018-11-13T22:36:21.016Z,4.63
2018-11-13T22:38:50.256Z,4.63
2018-11-13T22:41:19.507Z,4.65
2018-11-13T22:43:48.840Z,4.63
2018-11-13T22:46:18.222Z,4.60
2018-11-13T22:48:47.519Z,4.61
2018-11-13T22:51:16.710Z,4.64
2018-11-13T22:53:46.600Z,4.66
2018-11-13T22:56:15.884Z,4.71
2018-11-13T22:58:45.092Z,4.73
2018-11-13T23:01:15.062Z,4.77
2018-11-13T23:03:44.855Z,4.78
2018-11-13T23:06:14.765Z,4.75
2018-11-13T23:08:44.788Z,4.73
2018-11-13T23:11:15.617Z,4.69
2018-11-13T23:13:45.589Z,4.64
2018-11-13T23:16:15.457Z,4.49
2018-11-13T23:18:45.266Z,4.36
2018-11-13T23:21:15.307Z,4.31
2018-11-13T23:23:45.432Z,4.34
2018-11-13T23:26:15.366Z,4.33
2018-11-13T23:28:45.371Z,4.32
2018-11-13T23:31:15.575Z,4.31
2018-11-13T23:33:45.848Z,4.29
2018-11-13T23:36:15.881Z,4.23
2018-11-13T23:38:45.912Z,4.22
2018-11-13T23:41:15.856Z,4.23
